createdAt,value
2024-05-09T00:02:45.940Z,21.43
2024-05-09T00:06:50.282Z,20.27
2024-05-09T00:10:52.753Z,20.47
2024-05-09T00:14:54.639Z,21.23
2024-05-09T00:18:56.503Z,21.03
2024-05-09T00:23:01.309Z,21.43
2024-05-09T00:27:03.434Z,21.37
2024-05-09T00:31:05.111Z,22.27
2024-05-09T00:35:07.426Z,21.67
2024-05-09T00:39:11.875Z,21.73
2024-05-09T00:43:14.818Z,19.47
2024-05-09T00:47:17.445Z,20.30
2024-05-09T00:51:20.071Z,20.83
2024-05-09T00:55:24.701Z,21.50
2024-05-09T00:59:27.467Z,20.17
2024-05-09T01:03:29.677Z,22.73
2024-05-09T01:07:31.626Z,22.70
2024-05-09T01:11:36.732Z,21.33
2024-05-09T01:15:38.551Z,23.03
2024-05-09T01:19:42.031Z,23.03
2024-05-09T01:23:46.549Z,23.30
2024-05-09T01:27:48.306Z,21.80
2024-05-09T01:31:50.170Z,23.80
2024-05-09T01:35:52.209Z,23.87
2024-05-09T01:39:56.565Z,22.00
2024-05-09T01:43:58.425Z,22.33
2024-05-09T01:48:00.585Z,22.43
2024-05-09T01:52:02.769Z,23.33
2024-05-09T01:56:08.186Z,24.00
2024-05-09T02:00:15.539Z,23.70
2024-05-09T02:04:19.995Z,23.63
2024-05-09T02:08:22.409Z,22.30
2024-05-09T02:12:27.019Z,21.80
2024-05-09T02:16:28.850Z,22.07
2024-05-09T02:20:35.970Z,22.00
2024-05-09T02:24:38.733Z,21.83
2024-05-09T02:28:43.268Z,21.70
2024-05-09T02:32:45.274Z,23.97
2024-05-09T02:36:47.095Z,22.47
2024-05-09T02:40:48.930Z,24.57
2024-05-09T02:44:53.294Z,23.00
2024-05-09T02:48:55.163Z,23.70
2024-05-09T02:52:57.108Z,24.00
2024-05-09T02:56:58.904Z,24.00
2024-05-09T03:01:03.371Z,24.17
2024-05-09T03:05:05.649Z,24.50
2024-05-09T03:09:08.736Z,25.50
2024-05-09T03:13:14.555Z,23.27
2024-05-09T03:17:20.253Z,23.63
2024-05-09T03:21:22.033Z,24.77
2024-05-09T03:25:24.100Z,24.63
2024-05-09T03:29:26.020Z,24.80
2024-05-09T03:33:30.704Z,25.17
2024-05-09T03:37:32.577Z,24.97
2024-05-09T03:41:34.364Z,25.30
2024-05-09T03:45:36.262Z,26.83
2024-05-09T03:49:40.839Z,26.53
2024-05-09T03:53:42.604Z,23.97
2024-05-09T03:57:44.388Z,26.17
2024-05-09T04:01:46.352Z,26.63
2024-05-09T04:05:50.885Z,26.33
2024-05-09T04:09:52.639Z,28.23
2024-05-09T04:13:54.439Z,26.47
2024-05-09T04:17:56.494Z,26.07
2024-05-09T04:22:01.174Z,26.40
2024-05-09T04:26:02.955Z,27.23
2024-05-09T04:30:09.942Z,26.87
2024-05-09T04:34:14.628Z,25.97
2024-05-09T04:38:19.930Z,24.70
2024-05-09T04:42:21.725Z,27.30
2024-05-09T04:46:23.513Z,27.77
2024-05-09T04:50:35.128Z,28.53
2024-05-09T04:54:42.509Z,28.47
2024-05-09T04:58:44.810Z,29.17
2024-05-09T05:02:46.788Z,30.83
2024-05-09T05:06:48.622Z,28.30
2024-05-09T05:10:53.185Z,26.70
2024-05-09T05:14:55.181Z,25.40
2024-05-09T05:18:57.388Z,26.60
2024-05-09T05:22:59.238Z,26.83
2024-05-09T05:27:03.959Z,21.47
2024-05-09T05:31:05.654Z,20.20
2024-05-09T05:35:07.543Z,19.37
2024-05-09T05:39:09.362Z,17.60
2024-05-09T05:43:19.017Z,15.87
2024-05-09T05:47:21.083Z,15.27
2024-05-09T05:51:22.919Z,14.73
2024-05-09T05:55:24.655Z,15.57
2024-05-09T05:59:29.255Z,15.40
2024-05-09T06:03:31.203Z,14.23
2024-05-09T06:07:33.415Z,14.30
2024-05-09T06:11:35.562Z,16.53
2024-05-09T06:15:40.939Z,15.47
2024-05-09T06:19:43.110Z,15.93
2024-05-09T06:23:45.885Z,15.60
2024-05-09T06:27:47.773Z,18.33
2024-05-09T06:31:53.500Z,17.57
2024-05-09T06:35:55.850Z,16.10
2024-05-09T06:39:57.692Z,17.20
2024-05-09T06:43:59.632Z,18.20
2024-05-09T06:48:04.972Z,18.27
2024-05-09T06:52:06.906Z,16.80
2024-05-09T06:56:08.799Z,19.37
2024-05-09T07:00:22.696Z,20.07
2024-05-09T07:04:35.009Z,19.23
2024-05-09T07:08:37.968Z,19.47
2024-05-09T07:12:39.805Z,19.80
2024-05-09T07:16:41.592Z,19.57
2024-05-09T07:20:48.208Z,20.27
2024-05-09T07:24:50.583Z,20.17
2024-05-09T07:28:52.452Z,20.30
2024-05-09T07:32:54.500Z,20.90
2024-05-09T07:36:59.295Z,21.07
2024-05-09T07:41:01.010Z,19.93
2024-05-09T07:45:21.302Z,20.87
2024-05-09T07:53:40.841Z,20.37
2024-05-09T07:57:47.554Z,20.23
2024-05-09T08:01:49.676Z,20.40
2024-05-09T08:05:51.997Z,21.70
2024-05-09T08:09:56.491Z,21.63
2024-05-09T08:13:58.478Z,21.10
2024-05-09T08:18:00.496Z,19.93
2024-05-09T08:22:02.545Z,20.57
2024-05-09T08:26:06.955Z,21.40
2024-05-09T08:30:15.472Z,22.20
2024-05-09T08:34:24.666Z,21.27
2024-05-09T08:38:26.603Z,20.93
2024-05-09T08:42:32.432Z,22.73
2024-05-09T08:46:36.440Z,22.73
2024-05-09T08:50:40.757Z,21.77
2024-05-09T08:54:42.773Z,22.90
2024-05-09T08:58:49.319Z,21.95
2024-05-09T09:02:51.992Z,22.33
2024-05-09T09:06:58.381Z,21.10
2024-05-09T09:11:01.191Z,23.10
2024-05-09T09:15:05.991Z,21.58
2024-05-09T09:19:08.177Z,19.67
2024-05-09T09:23:10.160Z,22.02
2024-05-09T09:27:13.907Z,21.45
2024-05-09T09:31:19.846Z,19.85
2024-05-09T09:35:21.647Z,18.17
2024-05-09T09:39:27.835Z,8.43
2024-05-09T09:43:31.637Z,7.47
2024-05-09T09:47:37.737Z,4.90
2024-05-09T09:51:41.590Z,5.85
2024-05-09T09:55:43.566Z,4.85
2024-05-09T09:59:49.831Z,5.28
2024-05-09T10:03:54.529Z,6.40
2024-05-09T10:07:58.286Z,6.03
2024-05-09T10:12:09.608Z,4.00
2024-05-09T10:16:12.250Z,6.72
2024-05-09T10:20:21.945Z,7.80
2024-05-09T10:24:27.213Z,4.80
2024-05-09T10:28:30.985Z,6.13
2024-05-09T10:32:38.264Z,5.55
2024-05-09T10:36:44.045Z,5.13
2024-05-09T10:40:46.202Z,5.75
2024-05-09T10:44:48.171Z,5.95
2024-05-09T10:48:50.735Z,5.85
2024-05-09T10:52:55.445Z,6.38
2024-05-09T10:56:57.442Z,6.78
2024-05-09T11:01:00.661Z,8.05
2024-05-09T11:05:04.782Z,7.40
2024-05-09T11:09:10.112Z,6.28
2024-05-09T11:13:12.353Z,7.20
2024-05-09T11:17:14.216Z,6.50
2024-05-09T11:21:16.040Z,6.80
2024-05-09T11:25:20.539Z,7.05
2024-05-09T11:29:22.279Z,7.07
2024-05-09T11:33:24.368Z,7.68
2024-05-09T11:37:26.412Z,8.10
2024-05-09T11:41:32.201Z,6.82
2024-05-09T11:45:34.207Z,8.40
2024-05-09T11:49:36.181Z,6.80
2024-05-09T11:53:38.205Z,6.85
2024-05-09T11:57:42.639Z,6.63
2024-05-09T12:01:44.517Z,6.53
2024-05-09T12:05:46.634Z,6.28
2024-05-09T12:09:48.376Z,7.00
2024-05-09T12:13:52.908Z,6.53
2024-05-09T12:17:55.974Z,6.97
2024-05-09T12:21:59.162Z,7.20
2024-05-09T12:26:01.057Z,6.47
2024-05-09T12:30:09.048Z,6.18
2024-05-09T12:34:13.793Z,6.72
2024-05-09T12:38:15.799Z,5.30
2024-05-09T12:42:26.562Z,5.93
2024-05-09T12:46:32.581Z,5.47
2024-05-09T12:50:34.947Z,5.93
2024-05-09T12:54:37.092Z,6.22
2024-05-09T12:58:38.935Z,5.35
2024-05-09T13:02:43.514Z,5.90
2024-05-09T13:06:45.464Z,5.22
2024-05-09T13:10:47.896Z,6.32
2024-05-09T13:14:49.875Z,5.55
2024-05-09T13:18:54.379Z,4.45
2024-05-09T13:22:56.238Z,5.75
2024-05-09T13:26:58.080Z,5.75
2024-05-09T13:30:59.874Z,5.38
2024-05-09T13:35:04.700Z,4.90
2024-05-09T13:39:06.595Z,5.28
2024-05-09T13:43:08.326Z,5.40
2024-05-09T13:47:10.388Z,9.32
2024-05-09T13:51:14.755Z,16.13
2024-05-09T13:55:16.678Z,14.60
2024-05-09T13:59:18.492Z,6.18
2024-05-09T14:03:21.059Z,8.40
2024-05-09T14:07:25.931Z,3.70
2024-05-09T14:11:27.692Z,3.80
2024-05-09T14:15:29.523Z,4.43
2024-05-09T14:19:31.360Z,4.75
2024-05-09T14:23:35.758Z,5.63
2024-05-09T14:27:37.685Z,5.75
2024-05-09T14:31:39.854Z,5.95
2024-05-09T14:35:41.801Z,6.30
2024-05-09T14:39:46.237Z,5.05
2024-05-09T14:43:47.998Z,6.03
2024-05-09T14:47:50.001Z,5.43
2024-05-09T14:51:51.796Z,5.30
2024-05-09T14:55:56.316Z,7.28
2024-05-09T14:59:58.115Z,6.93
2024-05-09T15:03:59.905Z,31.25
2024-05-09T15:08:01.728Z,9.45
2024-05-09T15:12:06.486Z,9.85
2024-05-09T15:16:08.368Z,68.10
2024-05-09T15:20:16.771Z,17.08
2024-05-09T15:24:19.419Z,15.85
2024-05-09T15:28:24.011Z,8.50
2024-05-09T15:32:26.267Z,14.97
2024-05-09T15:36:28.097Z,9.03
2024-05-09T15:40:37.245Z,24.90
2024-05-09T15:44:44.252Z,15.80
2024-05-09T15:48:46.195Z,11.83
2024-05-09T15:52:48.087Z,12.50
2024-05-09T15:56:49.856Z,9.60
2024-05-09T16:00:54.602Z,7.93
2024-05-09T16:04:56.565Z,7.93
2024-05-09T16:08:58.420Z,7.27
2024-05-09T16:13:00.234Z,7.10
2024-05-09T16:17:05.310Z,6.70
2024-05-09T16:21:08.002Z,6.37
2024-05-09T16:25:09.760Z,6.90
2024-05-09T16:29:11.657Z,6.87
2024-05-09T16:33:16.193Z,6.93
2024-05-09T16:37:18.140Z,7.17
2024-05-09T16:41:20.023Z,5.60
2024-05-09T16:45:21.868Z,6.67
2024-05-09T16:49:26.795Z,5.63
2024-05-09T16:53:28.606Z,6.27
2024-05-09T16:57:30.466Z,6.10
2024-05-09T17:01:32.334Z,5.30
2024-05-09T17:05:37.242Z,7.67
2024-05-09T17:09:39.375Z,7.90
2024-05-09T17:13:41.106Z,7.77
2024-05-09T17:17:42.953Z,7.60
2024-05-09T17:21:47.457Z,7.67
2024-05-09T17:25:49.340Z,5.73
2024-05-09T17:29:51.128Z,10.27
2024-05-09T17:33:53.293Z,9.83
2024-05-09T17:37:58.484Z,9.67
2024-05-09T17:42:00.247Z,9.37
2024-05-09T17:46:02.239Z,8.20
2024-05-09T17:50:04.489Z,10.30
2024-05-09T17:54:09.268Z,7.27
2024-05-09T17:58:12.578Z,8.57
2024-05-09T18:02:14.503Z,7.17
2024-05-09T18:06:16.302Z,10.20
2024-05-09T18:10:25.996Z,7.70
2024-05-09T18:14:34.818Z,8.73
2024-05-09T18:18:36.834Z,7.47
2024-05-09T18:22:38.716Z,7.57
2024-05-09T18:26:43.192Z,7.23
2024-05-09T18:30:45.125Z,7.50
2024-05-09T18:34:47.138Z,7.17
2024-05-09T18:38:49.062Z,8.23
2024-05-09T18:42:53.521Z,7.27
2024-05-09T18:46:55.263Z,7.93
2024-05-09T18:50:57.052Z,7.37
2024-05-09T18:54:58.875Z,8.03
2024-05-09T18:59:03.170Z,7.33
2024-05-09T19:03:06.616Z,6.83
2024-05-09T19:07:08.780Z,6.87
2024-05-09T19:11:11.630Z,6.80
2024-05-09T19:15:16.084Z,7.23
2024-05-09T19:19:18.068Z,7.00
2024-05-09T19:23:19.864Z,6.50
2024-05-09T19:27:22.816Z,6.60
2024-05-09T19:31:27.510Z,6.70
2024-05-09T19:35:29.320Z,7.40
2024-05-09T19:39:31.291Z,7.20
2024-05-09T19:43:36.035Z,7.20
2024-05-09T19:47:41.066Z,7.03
2024-05-09T19:51:42.913Z,7.47
2024-05-09T19:55:44.923Z,7.07
2024-05-09T19:59:46.639Z,7.60
2024-05-09T20:03:51.244Z,7.53
2024-05-09T20:07:53.080Z,8.57
2024-05-09T20:11:54.980Z,8.60
2024-05-09T20:15:56.865Z,8.50
2024-05-09T20:20:01.918Z,8.60
2024-05-09T20:24:03.918Z,8.73
2024-05-09T20:28:06.273Z,8.67
2024-05-09T20:32:08.467Z,8.70
2024-05-09T20:36:12.954Z,8.87
2024-05-09T20:40:21.258Z,9.40
2024-05-09T20:44:27.362Z,9.30
2024-05-09T20:48:31.039Z,9.47
2024-05-09T20:52:36.393Z,9.37
2024-05-09T20:56:38.100Z,9.70
2024-05-09T21:00:43.276Z,11.43
2024-05-09T21:04:47.159Z,12.03
2024-05-09T21:08:51.620Z,12.37
2024-05-09T21:12:53.643Z,12.67
2024-05-09T21:16:55.808Z,12.57
2024-05-09T21:20:57.707Z,12.97
2024-05-09T21:25:02.300Z,12.80
2024-05-09T21:29:05.139Z,13.60
2024-05-09T21:33:07.766Z,12.63
2024-05-09T21:37:09.778Z,12.07
2024-05-09T21:41:14.212Z,13.77
2024-05-09T21:45:16.103Z,13.23
2024-05-09T21:49:18.083Z,12.70
2024-05-09T21:53:20.114Z,13.50
2024-05-09T21:57:24.651Z,13.57
2024-05-09T22:01:26.640Z,13.40
2024-05-09T22:05:28.725Z,14.43
2024-05-09T22:09:30.562Z,13.97
2024-05-09T22:13:35.189Z,13.90
2024-05-09T22:17:39.274Z,13.33
2024-05-09T22:21:41.188Z,14.03
2024-05-09T22:25:43.040Z,12.93
2024-05-09T22:29:47.520Z,13.20
2024-05-09T22:33:49.479Z,12.80
2024-05-09T22:37:51.370Z,11.97
2024-05-09T22:41:53.218Z,12.20
2024-05-09T22:45:57.691Z,12.93
2024-05-09T22:49:59.538Z,12.27
2024-05-09T22:54:03.784Z,12.20
2024-05-09T22:58:05.585Z,13.57
2024-05-09T23:02:10.224Z,13.20
2024-05-09T23:06:12.241Z,14.50
2024-05-09T23:10:20.999Z,13.23
2024-05-09T23:14:28.968Z,13.43
2024-05-09T23:18:33.490Z,13.50
2024-05-09T23:22:35.316Z,12.93
2024-05-09T23:26:41.484Z,13.13
2024-05-09T23:30:43.375Z,12.13
2024-05-09T23:34:47.923Z,13.20
2024-05-09T23:38:49.602Z,13.37
2024-05-09T23:42:51.432Z,12.80
2024-05-09T23:46:53.351Z,13.33
2024-05-09T23:50:57.775Z,12.83
2024-05-09T23:54:59.766Z,13.13
2024-05-09T23:59:01.575Z,12.77
